sensor_id;sensor_type;location;lat;lon;timestamp;pressure;altitude;pressure_sealevel;temperature;humidity
51369;BME280;37459;51.416;5.502;2023-05-03T00:00:01;101185.28;;;10.63;53.44
51369;BME280;37459;51.416;5.502;2023-05-03T00:02:30;101184.00;;;10.59;53.61
51369;BME280;37459;51.416;5.502;2023-05-03T00:04:56;101183.59;;;10.62;53.58
51369;BME280;37459;51.416;5.502;2023-05-03T00:07:25;101182.16;;;10.59;53.58
51369;BME280;37459;51.416;5.502;2023-05-03T00:09:51;101185.88;;;10.58;53.46
51369;BME280;37459;51.416;5.502;2023-05-03T00:12:18;101185.66;;;10.60;53.67
51369;BME280;37459;51.416;5.502;2023-05-03T00:14:45;101182.97;;;10.60;53.72
51369;BME280;37459;51.416;5.502;2023-05-03T00:17:11;101180.69;;;10.57;53.20
51369;BME280;37459;51.416;5.502;2023-05-03T00:19:39;101185.88;;;10.58;53.60
51369;BME280;37459;51.416;5.502;2023-05-03T00:22:06;101179.63;;;10.58;53.46
51369;BME280;37459;51.416;5.502;2023-05-03T00:24:33;101185.03;;;10.58;53.38
51369;BME280;37459;51.416;5.502;2023-05-03T00:27:00;101192.09;;;10.59;53.30
51369;BME280;37459;51.416;5.502;2023-05-03T00:29:28;101187.97;;;10.56;53.58
51369;BME280;37459;51.416;5.502;2023-05-03T00:31:55;101182.75;;;10.55;53.78
51369;BME280;37459;51.416;5.502;2023-05-03T00:34:21;101182.75;;;10.55;53.59
51369;BME280;37459;51.416;5.502;2023-05-03T00:36:49;101189.16;;;10.54;53.50
51369;BME280;37459;51.416;5.502;2023-05-03T00:39:16;101187.50;;;10.53;53.51
51369;BME280;37459;51.416;5.502;2023-05-03T00:41:42;101182.53;;;10.50;53.58
51369;BME280;37459;51.416;5.502;2023-05-03T00:44:09;101193.91;;;10.52;53.49
51369;BME280;37459;51.416;5.502;2023-05-03T00:46:35;101198.28;;;10.53;53.64
51369;BME280;37459;51.416;5.502;2023-05-03T00:49:02;101185.22;;;10.50;53.49
51369;BME280;37459;51.416;5.502;2023-05-03T00:51:28;101179.78;;;10.43;53.53
51369;BME280;37459;51.416;5.502;2023-05-03T00:53:56;101188.31;;;10.46;53.45
51369;BME280;37459;51.416;5.502;2023-05-03T00:56:23;101194.75;;;10.45;53.62
51369;BME280;37459;51.416;5.502;2023-05-03T00:58:51;101189.56;;;10.44;53.35
51369;BME280;37459;51.416;5.502;2023-05-03T01:01:17;101181.66;;;10.42;53.49
51369;BME280;37459;51.416;5.502;2023-05-03T01:03:44;101181.66;;;10.42;53.62
51369;BME280;37459;51.416;5.502;2023-05-03T01:06:16;101181.03;;;10.40;53.64
51369;BME280;37459;51.416;5.502;2023-05-03T01:08:53;101179.16;;;10.41;53.60
51369;BME280;37459;51.416;5.502;2023-05-03T01:11:29;101171.69;;;10.36;53.48
51369;BME280;37459;51.416;5.502;2023-05-03T01:14:08;101153.16;;;10.26;53.73
51369;BME280;37459;51.416;5.502;2023-05-03T01:16:39;101170.84;;;10.36;53.68
51369;BME280;37459;51.416;5.502;2023-05-03T01:19:17;101182.47;;;10.36;53.86
51369;BME280;37459;51.416;5.502;2023-05-03T01:21:46;101184.50;;;10.34;53.69
51369;BME280;37459;51.416;5.502;2023-05-03T01:24:21;101175.81;;;10.32;53.64
51369;BME280;37459;51.416;5.502;2023-05-03T01:26:51;101183.06;;;10.32;53.75
51369;BME280;37459;51.416;5.502;2023-05-03T01:29:18;101183.88;;;10.32;53.72
51369;BME280;37459;51.416;5.502;2023-05-03T01:31:48;101181.59;;;10.29;53.90
51369;BME280;37459;51.416;5.502;2023-05-03T01:34:24;101183.44;;;10.28;53.81
51369;BME280;37459;51.416;5.502;2023-05-03T01:36:57;101185.69;;;10.25;53.78
51369;BME280;37459;51.416;5.502;2023-05-03T01:39:32;101193.13;;;10.23;53.70
51369;BME280;37459;51.416;5.502;2023-05-03T01:42:03;101193.78;;;10.25;53.87
51369;BME280;37459;51.416;5.502;2023-05-03T01:44:31;101192.13;;;10.24;54.08
51369;BME280;37459;51.416;5.502;2023-05-03T01:46:58;101196.88;;;10.22;53.73
51369;BME280;37459;51.416;5.502;2023-05-03T01:49:27;101195.19;;;10.21;53.87
51369;BME280;37459;51.416;5.502;2023-05-03T01:51:53;101188.34;;;10.18;53.54
51369;BME280;37459;51.416;5.502;2023-05-03T01:54:20;101186.28;;;10.20;53.75
51369;BME280;37459;51.416;5.502;2023-05-03T01:56:46;101187.34;;;10.19;53.91
51369;BME280;37459;51.416;5.502;2023-05-03T01:59:14;101184.38;;;10.14;53.89
51369;BME280;37459;51.416;5.502;2023-05-03T02:01:41;101192.47;;;10.14;54.02
51369;BME280;37459;51.416;5.502;2023-05-03T02:04:07;101199.13;;;10.18;53.96
51369;BME280;37459;51.416;5.502;2023-05-03T02:06:35;101205.56;;;10.17;53.86
51369;BME280;37459;51.416;5.502;2023-05-03T02:09:01;101196.84;;;10.15;53.67
51369;BME280;37459;51.416;5.502;2023-05-03T02:11:28;101195.34;;;10.13;53.71
51369;BME280;37459;51.416;5.502;2023-05-03T02:13:55;101194.75;;;10.11;53.68
51369;BME280;37459;51.416;5.502;2023-05-03T02:16:23;101192.06;;;10.11;53.95
51369;BME280;37459;51.416;5.502;2023-05-03T02:18:50;101193.06;;;10.10;53.69
51369;BME280;37459;51.416;5.502;2023-05-03T02:21:18;101190.38;;;10.10;53.89
51369;BME280;37459;51.416;5.502;2023-05-03T02:23:44;101191.41;;;10.08;53.82
51369;BME280;37459;51.416;5.502;2023-05-03T02:26:11;101193.06;;;10.10;53.75
51369;BME280;37459;51.416;5.502;2023-05-03T02:28:37;101188.09;;;10.06;53.75
51369;BME280;37459;51.416;5.502;2023-05-03T02:31:04;101177.31;;;10.06;53.77
51369;BME280;37459;51.416;5.502;2023-05-03T02:33:32;101169.84;;;10.02;53.84
51369;BME280;37459;51.416;5.502;2023-05-03T02:35:59;101160.69;;;9.96;53.78
51369;BME280;37459;51.416;5.502;2023-05-03T02:38:26;101173.13;;;10.04;54.05
51369;BME280;37459;51.416;5.502;2023-05-03T02:40:53;101166.28;;;10.01;53.62
51369;BME280;37459;51.416;5.502;2023-05-03T02:43:20;101165.47;;;10.01;53.68
51369;BME280;37459;51.416;5.502;2023-05-03T02:45:46;101160.50;;;9.98;53.84
51369;BME280;37459;51.416;5.502;2023-05-03T02:48:13;101153.22;;;9.98;53.84
51369;BME280;37459;51.416;5.502;2023-05-03T02:50:42;101146.16;;;9.97;53.80
51369;BME280;37459;51.416;5.502;2023-05-03T02:53:08;101146.16;;;9.97;53.80
51369;BME280;37459;51.416;5.502;2023-05-03T02:55:35;101136.63;;;9.95;53.92
51369;BME280;37459;51.416;5.502;2023-05-03T02:58:02;101130.22;;;9.96;53.86
51369;BME280;37459;51.416;5.502;2023-05-03T03:00:29;101125.03;;;9.94;53.72
51369;BME280;37459;51.416;5.502;2023-05-03T03:02:55;101121.50;;;9.94;53.81
51369;BME280;37459;51.416;5.502;2023-05-03T03:05:22;101115.69;;;9.90;53.69
51369;BME280;37459;51.416;5.502;2023-05-03T03:07:50;101104.69;;;9.85;53.72
51369;BME280;37459;51.416;5.502;2023-05-03T03:10:16;101115.06;;;9.88;54.02
51369;BME280;37459;51.416;5.502;2023-05-03T03:12:43;101120.63;;;9.86;53.75
51369;BME280;37459;51.416;5.502;2023-05-03T03:15:10;101132.25;;;9.87;53.67
51369;BME280;37459;51.416;5.502;2023-05-03T03:17:37;101137.38;;;9.82;53.79
51369;BME280;37459;51.416;5.502;2023-05-03T03:20:05;101132.00;;;9.82;53.71
51369;BME280;37459;51.416;5.502;2023-05-03T03:22:31;101131.34;;;9.80;53.92
51369;BME280;37459;51.416;5.502;2023-05-03T03:24:59;101138.22;;;9.82;53.67
51369;BME280;37459;51.416;5.502;2023-05-03T03:27:26;101136.38;;;9.83;53.69
51369;BME280;37459;51.416;5.502;2023-05-03T03:29:52;101123.69;;;9.77;53.85
51369;BME280;37459;51.416;5.502;2023-05-03T03:32:19;101126.56;;;9.75;53.61
51369;BME280;37459;51.416;5.502;2023-05-03T03:34:46;101140.25;;;9.74;53.80
51369;BME280;37459;51.416;5.502;2023-05-03T03:37:12;101143.97;;;9.73;53.97
51369;BME280;37459;51.416;5.502;2023-05-03T03:39:39;101157.00;;;9.76;53.70
51369;BME280;37459;51.416;5.502;2023-05-03T03:42:09;101151.03;;;9.74;53.59
51369;BME280;37459;51.416;5.502;2023-05-03T03:44:36;101149.34;;;9.73;53.81
51369;BME280;37459;51.416;5.502;2023-05-03T03:47:03;101147.47;;;9.73;53.62
51369;BME280;37459;51.416;5.502;2023-05-03T03:49:29;101139.81;;;9.70;53.83
51369;BME280;37459;51.416;5.502;2023-05-03T03:51:56;101141.03;;;9.68;53.78
51369;BME280;37459;51.416;5.502;2023-05-03T03:54:22;101144.38;;;9.70;53.63
51369;BME280;37459;51.416;5.502;2023-05-03T03:56:49;101138.34;;;9.68;53.72
51369;BME280;37459;51.416;5.502;2023-05-03T03:59:17;101144.75;;;9.66;53.72
51369;BME280;37459;51.416;5.502;2023-05-03T04:01:44;101125.22;;;9.58;53.62
51369;BME280;37459;51.416;5.502;2023-05-03T04:04:11;101137.44;;;9.60;53.58
51369;BME280;37459;51.416;5.502;2023-05-03T04:06:37;101142.44;;;9.63;53.70
51369;BME280;37459;51.416;5.502;2023-05-03T04:09:04;101142.63;;;9.62;53.82
51369;BME280;37459;51.416;5.502;2023-05-03T04:11:31;101150.91;;;9.60;53.69
51369;BME280;37459;51.416;5.502;2023-05-03T04:13:57;101153.59;;;9.60;53.68
51369;BME280;37459;51.416;5.502;2023-05-03T04:16:25;101150.25;;;9.58;53.67
51369;BME280;37459;51.416;5.502;2023-05-03T04:18:52;101149.03;;;9.54;53.85
51369;BME280;37459;51.416;5.502;2023-05-03T04:21:18;101157.09;;;9.54;53.91
51369;BME280;37459;51.416;5.502;2023-05-03T04:23:45;101157.91;;;9.55;53.73
51369;BME280;37459;51.416;5.502;2023-05-03T04:26:11;101149.56;;;9.50;53.76
51369;BME280;37459;51.416;5.502;2023-05-03T04:28:38;101142.53;;;9.49;53.79
51369;BME280;37459;51.416;5.502;2023-05-03T04:31:04;101157.09;;;9.54;53.77
51369;BME280;37459;51.416;5.502;2023-05-03T04:33:32;101151.44;;;9.49;53.95
51369;BME280;37459;51.416;5.502;2023-05-03T04:35:59;101154.13;;;9.49;53.82
51369;BME280;37459;51.416;5.502;2023-05-03T04:38:26;101159.53;;;9.49;54.36
51369;BME280;37459;51.416;5.502;2023-05-03T04:40:53;101170.91;;;9.51;54.28
51369;BME280;37459;51.416;5.502;2023-05-03T04:43:19;101165.72;;;9.50;54.33
51369;BME280;37459;51.416;5.502;2023-05-03T04:45:46;101168.41;;;9.50;54.06
51369;BME280;37459;51.416;5.502;2023-05-03T04:48:12;101156.19;;;9.47;54.02
51369;BME280;37459;51.416;5.502;2023-05-03T04:50:40;101173.16;;;9.48;53.99
51369;BME280;37459;51.416;5.502;2023-05-03T04:53:07;101182.31;;;9.53;53.70
51369;BME280;37459;51.416;5.502;2023-05-03T04:55:33;101184.00;;;9.54;53.97
51369;BME280;37459;51.416;5.502;2023-05-03T04:58:00;101197.25;;;9.56;54.21
51369;BME280;37459;51.416;5.502;2023-05-03T05:00:26;101190.41;;;9.53;53.99
51369;BME280;37459;51.416;5.502;2023-05-03T05:02:53;101195.31;;;9.50;54.10
51369;BME280;37459;51.416;5.502;2023-05-03T05:05:19;101208.00;;;9.56;53.83
51369;BME280;37459;51.416;5.502;2023-05-03T05:07:47;101209.88;;;9.55;53.88
51369;BME280;37459;51.416;5.502;2023-05-03T05:10:14;101210.91;;;9.54;53.96
51369;BME280;37459;51.416;5.502;2023-05-03T05:12:41;101215.44;;;9.54;53.62
51369;BME280;37459;51.416;5.502;2023-05-03T05:15:08;101213.41;;;9.56;53.80
51369;BME280;37459;51.416;5.502;2023-05-03T05:17:35;101215.44;;;9.54;53.66
51369;BME280;37459;51.416;5.502;2023-05-03T05:20:01;101215.06;;;9.57;53.52
51369;BME280;37459;51.416;5.502;2023-05-03T05:22:31;101210.72;;;9.56;53.76
51369;BME280;37459;51.416;5.502;2023-05-03T05:24:59;101208.47;;;9.59;53.92
51369;BME280;37459;51.416;5.502;2023-05-03T05:27:25;101206.78;;;9.58;53.92
51369;BME280;37459;51.416;5.502;2023-05-03T05:29:52;101205.19;;;9.64;53.21
51369;BME280;37459;51.416;5.502;2023-05-03T05:32:19;101205.00;;;9.65;53.16
51369;BME280;37459;51.416;5.502;2023-05-03T05:34:46;101196.47;;;9.62;53.32
51369;BME280;37459;51.416;5.502;2023-05-03T05:37:17;101204.38;;;9.63;53.39
51369;BME280;37459;51.416;5.502;2023-05-03T05:39:44;101192.50;;;9.58;53.20
51369;BME280;37459;51.416;5.502;2023-05-03T05:42:11;101201.22;;;9.60;53.48
51369;BME280;37459;51.416;5.502;2023-05-03T05:44:38;101198.16;;;9.63;53.37
51369;BME280;37459;51.416;5.502;2023-05-03T05:47:05;101193.59;;;9.63;52.89
51369;BME280;37459;51.416;5.502;2023-05-03T05:49:32;101193.59;;;9.63;53.44
51369;BME280;37459;51.416;5.502;2023-05-03T05:51:58;101194.41;;;9.64;53.28
51369;BME280;37459;51.416;5.502;2023-05-03T05:54:25;101196.28;;;9.63;53.46
51369;BME280;37459;51.416;5.502;2023-05-03T05:56:51;101189.22;;;9.62;53.47
51369;BME280;37459;51.416;5.502;2023-05-03T05:59:19;101194.41;;;9.64;53.50
51369;BME280;37459;51.416;5.502;2023-05-03T06:01:46;101191.53;;;9.65;53.54
51369;BME280;37459;51.416;5.502;2023-05-03T06:04:13;101188.22;;;9.63;53.80
51369;BME280;37459;51.416;5.502;2023-05-03T06:06:39;101188.22;;;9.63;53.96
51369;BME280;37459;51.416;5.502;2023-05-03T06:09:06;101187.81;;;9.66;53.89
51369;BME280;37459;51.416;5.502;2023-05-03T06:11:34;101185.94;;;9.67;53.73
51369;BME280;37459;51.416;5.502;2023-05-03T06:14:02;101192.81;;;9.70;53.86
51369;BME280;37459;51.416;5.502;2023-05-03T06:16:30;101183.69;;;9.71;53.75
51369;BME280;37459;51.416;5.502;2023-05-03T06:18:56;101187.44;;;9.70;53.62
51369;BME280;37459;51.416;5.502;2023-05-03T06:21:23;101182.88;;;9.70;53.54
51369;BME280;37459;51.416;5.502;2023-05-03T06:23:50;101184.97;;;9.75;53.69
51369;BME280;37459;51.416;5.502;2023-05-03T06:26:17;101187.47;;;9.76;53.56
51369;BME280;37459;51.416;5.502;2023-05-03T06:28:44;101182.09;;;9.76;53.49
51369;BME280;37459;51.416;5.502;2023-05-03T06:31:11;101175.84;;;9.76;53.53
51369;BME280;37459;51.416;5.502;2023-05-03T06:33:39;101169.88;;;9.74;53.39
51369;BME280;37459;51.416;5.502;2023-05-03T06:36:06;101177.53;;;9.77;53.52
51369;BME280;37459;51.416;5.502;2023-05-03T06:38:33;101181.25;;;9.76;53.35
51369;BME280;37459;51.416;5.502;2023-05-03T06:41:00;101177.09;;;9.73;53.38
51369;BME280;37459;51.416;5.502;2023-05-03T06:43:26;101181.25;;;9.76;53.19
51369;BME280;37459;51.416;5.502;2023-05-03T06:45:53;101165.69;;;9.71;53.24
51369;BME280;37459;51.416;5.502;2023-05-03T06:48:20;101171.50;;;9.75;53.64
51369;BME280;37459;51.416;5.502;2023-05-03T06:50:48;101177.34;;;9.78;52.99
51369;BME280;37459;51.416;5.502;2023-05-03T06:53:15;101169.47;;;9.77;52.86
51369;BME280;37459;51.416;5.502;2023-05-03T06:55:42;101158.00;;;9.68;52.90
51369;BME280;37459;51.416;5.502;2023-05-03T06:58:09;101166.31;;;9.73;52.54
51369;BME280;37459;51.416;5.502;2023-05-03T07:00:36;101165.94;;;9.76;52.12
51369;BME280;37459;51.416;5.502;2023-05-03T07:03:04;101156.41;;;9.74;52.46
51369;BME280;37459;51.416;5.502;2023-05-03T07:05:30;101160.56;;;9.76;52.32
51369;BME280;37459;51.416;5.502;2023-05-03T07:07:58;101165.94;;;9.76;52.36
51369;BME280;37459;51.416;5.502;2023-05-03T07:10:25;101162.41;;;9.76;52.54
51369;BME280;37459;51.416;5.502;2023-05-03T07:12:54;101166.13;;;9.75;52.28
51369;BME280;37459;51.416;5.502;2023-05-03T07:15:21;101164.06;;;9.77;52.30
51369;BME280;37459;51.416;5.502;2023-05-03T07:17:47;101160.59;;;9.83;52.08
51369;BME280;37459;51.416;5.502;2023-05-03T07:20:15;101165.97;;;9.83;52.12
51369;BME280;37459;51.416;5.502;2023-05-03T07:22:43;101160.19;;;9.86;52.12
51369;BME280;37459;51.416;5.502;2023-05-03T07:25:12;101165.38;;;9.87;51.97
51369;BME280;37459;51.416;5.502;2023-05-03T07:27:41;101168.91;;;9.88;51.69
51369;BME280;37459;51.416;5.502;2023-05-03T07:30:11;101165.38;;;9.87;51.52
51369;BME280;37459;51.416;5.502;2023-05-03T07:32:38;101174.28;;;9.88;50.78
51369;BME280;37459;51.416;5.502;2023-05-03T07:35:05;101167.63;;;9.84;50.36
51369;BME280;37459;51.416;5.502;2023-05-03T07:37:32;101165.56;;;9.86;49.95
51369;BME280;37459;51.416;5.502;2023-05-03T07:39:59;101162.72;;;9.94;49.48
51369;BME280;37459;51.416;5.502;2023-05-03T07:42:27;101146.34;;;9.89;49.52
51369;BME280;37459;51.416;5.502;2023-05-03T07:44:53;101138.28;;;9.89;49.10
51369;BME280;37459;51.416;5.502;2023-05-03T07:47:20;101144.94;;;9.93;49.17
51369;BME280;37459;51.416;5.502;2023-05-03T07:49:47;101148.44;;;9.94;48.56
51369;BME280;37459;51.416;5.502;2023-05-03T07:52:15;101145.75;;;9.94;48.04
51369;BME280;37459;51.416;5.502;2023-05-03T07:54:42;101144.94;;;9.93;47.46
51369;BME280;37459;51.416;5.502;2023-05-03T07:57:11;101147.41;;;9.95;47.82
51369;BME280;37459;51.416;5.502;2023-05-03T07:59:39;101144.53;;;9.96;47.81
51369;BME280;37459;51.416;5.502;2023-05-03T08:02:06;101139.97;;;9.97;47.44
51369;BME280;37459;51.416;5.502;2023-05-03T08:04:32;101124.00;;;9.95;47.62
51369;BME280;37459;51.416;5.502;2023-05-03T08:06:59;101131.88;;;9.97;46.89
51369;BME280;37459;51.416;5.502;2023-05-03T08:09:26;101130.63;;;9.99;47.07
51369;BME280;37459;51.416;5.502;2023-05-03T08:11:53;101126.31;;;9.98;47.11
51369;BME280;37459;51.416;5.502;2023-05-03T08:14:20;101121.94;;;9.97;47.26
51369;BME280;37459;51.416;5.502;2023-05-03T08:16:48;101119.22;;;9.97;46.14
51369;BME280;37459;51.416;5.502;2023-05-03T08:19:15;101113.84;;;9.97;46.68
51369;BME280;37459;51.416;5.502;2023-05-03T08:21:42;101120.09;;;9.98;46.57
51369;BME280;37459;51.416;5.502;2023-05-03T08:24:08;101104.13;;;9.96;46.35
51369;BME280;37459;51.416;5.502;2023-05-03T08:26:35;101106.81;;;9.96;45.99
51369;BME280;37459;51.416;5.502;2023-05-03T08:29:02;101109.69;;;9.95;46.65
51369;BME280;37459;51.416;5.502;2023-05-03T08:31:28;101113.84;;;9.97;46.71
51369;BME280;37459;51.416;5.502;2023-05-03T08:33:57;101109.69;;;9.95;45.88
51369;BME280;37459;51.416;5.502;2023-05-03T08:36:24;101106.38;;;9.93;45.01
51369;BME280;37459;51.416;5.502;2023-05-03T08:38:50;101106.19;;;9.94;45.18
51369;BME280;37459;51.416;5.502;2023-05-03T08:41:20;101099.38;;;9.98;45.09
51369;BME280;37459;51.416;5.502;2023-05-03T08:43:52;101101.00;;;9.99;45.00
51369;BME280;37459;51.416;5.502;2023-05-03T08:46:19;101092.13;;;10.05;45.04
51369;BME280;37459;51.416;5.502;2023-05-03T08:48:47;101091.75;;;10.08;44.52
51369;BME280;37459;51.416;5.502;2023-05-03T08:51:15;101098.19;;;10.14;44.26
51369;BME280;37459;51.416;5.502;2023-05-03T08:53:42;101101.94;;;10.20;44.27
51369;BME280;37459;51.416;5.502;2023-05-03T08:56:09;101102.59;;;10.22;44.33
51369;BME280;37459;51.416;5.502;2023-05-03T08:58:37;101104.47;;;10.28;44.40
51369;BME280;37459;51.416;5.502;2023-05-03T09:01:05;101101.41;;;10.38;43.90
51369;BME280;37459;51.416;5.502;2023-05-03T09:03:32;101097.47;;;10.34;43.67
51369;BME280;37459;51.416;5.502;2023-05-03T09:05:59;101106.59;;;10.33;43.48
51369;BME280;37459;51.416;5.502;2023-05-03T09:08:28;101127.28;;;10.32;43.69
51369;BME280;37459;51.416;5.502;2023-05-03T09:10:55;101117.69;;;10.23;44.48
51369;BME280;37459;51.416;5.502;2023-05-03T09:13:28;101114.00;;;10.24;43.77
51369;BME280;37459;51.416;5.502;2023-05-03T09:15:56;101114.38;;;10.21;43.90
51369;BME280;37459;51.416;5.502;2023-05-03T09:18:23;101113.75;;;10.19;43.29
51369;BME280;37459;51.416;5.502;2023-05-03T09:20:51;101118.53;;;10.23;43.69
51369;BME280;37459;51.416;5.502;2023-05-03T09:23:19;101106.50;;;10.19;44.05
51369;BME280;37459;51.416;5.502;2023-05-03T09:25:56;101114.88;;;10.31;43.04
51369;BME280;37459;51.416;5.502;2023-05-03T09:28:23;101107.56;;;10.25;43.44
51369;BME280;37459;51.416;5.502;2023-05-03T09:31:03;101109.88;;;10.28;42.87
51369;BME280;37459;51.416;5.502;2023-05-03T09:33:30;101100.34;;;10.32;42.14
51369;BME280;37459;51.416;5.502;2023-05-03T09:35:58;101116.13;;;10.35;42.68
51369;BME280;37459;51.416;5.502;2023-05-03T09:38:25;101104.53;;;10.35;42.89
51369;BME280;37459;51.416;5.502;2023-05-03T09:40:54;101106.78;;;10.31;42.92
51369;BME280;37459;51.416;5.502;2023-05-03T09:43:21;101106.97;;;10.30;43.62
51369;BME280;37459;51.416;5.502;2023-05-03T09:45:47;101100.75;;;10.29;42.51
51369;BME280;37459;51.416;5.502;2023-05-03T09:48:14;101095.38;;;10.29;43.16
51369;BME280;37459;51.416;5.502;2023-05-03T09:50:43;101098.22;;;10.27;43.43
51369;BME280;37459;51.416;5.502;2023-05-03T09:53:09;101099.91;;;10.28;43.42
51369;BME280;37459;51.416;5.502;2023-05-03T09:55:39;101088.69;;;10.25;42.52
51369;BME280;37459;51.416;5.502;2023-05-03T09:58:07;101098.66;;;10.24;42.79
51369;BME280;37459;51.416;5.502;2023-05-03T10:00:38;101095.94;;;10.24;42.89
51369;BME280;37459;51.416;5.502;2023-05-03T10:03:07;101088.28;;;10.21;42.88
51369;BME280;37459;51.416;5.502;2023-05-03T10:05:41;101079.56;;;10.19;43.13
51369;BME280;37459;51.416;5.502;2023-05-03T10:08:09;101082.47;;;10.18;43.05
51369;BME280;37459;51.416;5.502;2023-05-03T10:10:41;101076.00;;;10.12;43.18
51369;BME280;37459;51.416;5.502;2023-05-03T10:13:11;101063.34;;;10.13;43.05
51369;BME280;37459;51.416;5.502;2023-05-03T10:15:40;101077.47;;;10.15;43.31
51369;BME280;37459;51.416;5.502;2023-05-03T10:18:10;101070.84;;;10.11;43.29
51369;BME280;37459;51.416;5.502;2023-05-03T10:20:42;101075.81;;;10.14;43.29
51369;BME280;37459;51.416;5.502;2023-05-03T10:23:10;101075.81;;;10.14;43.39
51369;BME280;37459;51.416;5.502;2023-05-03T10:25:38;101058.38;;;10.10;42.64
51369;BME280;37459;51.416;5.502;2023-05-03T10:28:06;101065.03;;;10.14;42.86
51369;BME280;37459;51.416;5.502;2023-05-03T10:30:37;101061.91;;;10.10;43.53
51369;BME280;37459;51.416;5.502;2023-05-03T10:33:29;101068.34;;;10.09;44.01
51369;BME280;37459;51.416;5.502;2023-05-03T10:35:57;101068.97;;;10.11;43.34
51369;BME280;37459;51.416;5.502;2023-05-03T10:38:26;101060.06;;;10.11;43.82
51369;BME280;37459;51.416;5.502;2023-05-03T10:40:54;101062.75;;;10.11;43.71
51369;BME280;37459;51.416;5.502;2023-05-03T10:43:43;101072.91;;;10.08;42.72
51369;BME280;37459;51.416;5.502;2023-05-03T10:46:33;101068.97;;;10.11;43.91
51369;BME280;37459;51.416;5.502;2023-05-03T10:49:18;101067.09;;;10.12;43.94
51369;BME280;37459;51.416;5.502;2023-05-03T10:51:45;101064.41;;;10.12;44.03
51369;BME280;37459;51.416;5.502;2023-05-03T10:54:12;101075.81;;;10.14;42.73
51369;BME280;37459;51.416;5.502;2023-05-03T10:57:02;101067.28;;;10.10;43.42
51369;BME280;37459;51.416;5.502;2023-05-03T10:59:45;101060.88;;;10.11;42.31
51369;BME280;37459;51.416;5.502;2023-05-03T11:02:15;101063.34;;;10.13;42.02
51369;BME280;37459;51.416;5.502;2023-05-03T11:04:48;101059.00;;;10.12;42.32
51369;BME280;37459;51.416;5.502;2023-05-03T11:07:18;101061.72;;;10.12;42.54
51369;BME280;37459;51.416;5.502;2023-05-03T11:09:45;101068.34;;;10.16;42.14
51369;BME280;37459;51.416;5.502;2023-05-03T11:12:12;101055.91;;;10.15;42.38
51369;BME280;37459;51.416;5.502;2023-05-03T11:14:40;101059.22;;;10.17;41.94
51369;BME280;37459;51.416;5.502;2023-05-03T11:17:07;101054.09;;;10.22;41.79
51369;BME280;37459;51.416;5.502;2023-05-03T11:19:35;101056.38;;;10.25;41.81
51369;BME280;37459;51.416;5.502;2023-05-03T11:22:02;101048.91;;;10.27;41.88
51369;BME280;37459;51.416;5.502;2023-05-03T11:24:29;101049.78;;;10.34;42.09
51369;BME280;37459;51.416;5.502;2023-05-03T11:26:56;101043.75;;;10.32;42.00
51369;BME280;37459;51.416;5.502;2023-05-03T11:29:23;101035.72;;;10.39;42.22
51369;BME280;37459;51.416;5.502;2023-05-03T11:31:51;101034.88;;;10.38;42.21
51369;BME280;37459;51.416;5.502;2023-05-03T11:34:17;101035.28;;;10.42;41.91
51369;BME280;37459;51.416;5.502;2023-05-03T11:36:45;101034.47;;;10.41;41.94
51369;BME280;37459;51.416;5.502;2023-05-03T11:39:13;101023.69;;;10.41;41.94
51369;BME280;37459;51.416;5.502;2023-05-03T11:41:40;101025.78;;;10.46;41.71
51369;BME280;37459;51.416;5.502;2023-05-03T11:44:07;101022.66;;;10.49;41.86
51369;BME280;37459;51.416;5.502;2023-05-03T11:46:36;101032.44;;;10.57;41.83
51369;BME280;37459;51.416;5.502;2023-05-03T11:49:03;101022.47;;;10.57;42.32
51369;BME280;37459;51.416;5.502;2023-05-03T11:51:29;101016.06;;;10.58;42.77
51369;BME280;37459;51.416;5.502;2023-05-03T11:53:59;101024.16;;;10.65;42.40
51369;BME280;37459;51.416;5.502;2023-05-03T11:56:26;101016.69;;;10.67;42.40
51369;BME280;37459;51.416;5.502;2023-05-03T11:58:54;101016.69;;;10.67;42.68
51369;BME280;37459;51.416;5.502;2023-05-03T12:01:23;101004.66;;;10.69;42.63
51369;BME280;37459;51.416;5.502;2023-05-03T12:03:53;101014.63;;;10.76;42.65
51369;BME280;37459;51.416;5.502;2023-05-03T12:06:21;101001.13;;;10.76;42.81
51369;BME280;37459;51.416;5.502;2023-05-03T12:08:48;101004.22;;;10.79;42.89
51369;BME280;37459;51.416;5.502;2023-05-03T12:11:16;100998.00;;;10.85;42.78
51369;BME280;37459;51.416;5.502;2023-05-03T12:13:43;100992.59;;;10.85;42.64
51369;BME280;37459;51.416;5.502;2023-05-03T12:16:10;100976.63;;;10.84;42.86
51369;BME280;37459;51.416;5.502;2023-05-03T12:18:49;100985.75;;;10.89;42.94
51369;BME280;37459;51.416;5.502;2023-05-03T12:21:17;100973.31;;;10.88;42.98
51369;BME280;37459;51.416;5.502;2023-05-03T12:23:44;100975.59;;;10.92;42.91
51369;BME280;37459;51.416;5.502;2023-05-03T12:26:11;100983.25;;;10.95;42.87
51369;BME280;37459;51.416;5.502;2023-05-03T12:28:40;100971.44;;;10.96;43.28
51369;BME280;37459;51.416;5.502;2023-05-03T12:31:06;100962.31;;;10.97;43.26
51369;BME280;37459;51.416;5.502;2023-05-03T12:33:34;100964.81;;;10.98;43.09
51369;BME280;37459;51.416;5.502;2023-05-03T12:36:01;100972.47;;;11.01;43.18
51369;BME280;37459;51.416;5.502;2023-05-03T12:38:27;100963.97;;;10.98;43.01
51369;BME280;37459;51.416;5.502;2023-05-03T12:40:55;100952.56;;;10.96;43.29
51369;BME280;37459;51.416;5.502;2023-05-03T12:43:22;100941.53;;;10.97;43.35
51369;BME280;37459;51.416;5.502;2023-05-03T12:45:50;100934.50;;;10.96;43.62
51369;BME280;37459;51.416;5.502;2023-05-03T12:48:16;100932.44;;;10.98;43.56
51369;BME280;37459;51.416;5.502;2023-05-03T12:50:43;100925.38;;;10.97;43.65
51369;BME280;37459;51.416;5.502;2023-05-03T12:53:09;100921.84;;;10.97;43.52
51369;BME280;37459;51.416;5.502;2023-05-03T12:55:37;100913.75;;;10.97;43.61
51369;BME280;37459;51.416;5.502;2023-05-03T12:58:04;100917.06;;;10.99;43.70